sensor_id;sensor_type;location;lat;lon;timestamp;pressure;altitude;pressure_sealevel;temperature;humidity
23616;BME280;11985;49.404;7.734;2023-02-20T00:02:07;98380.34;;;5.38;100.00
23616;BME280;11985;49.404;7.734;2023-02-20T00:07:09;98394.28;;;5.28;100.00
23616;BME280;11985;49.404;7.734;2023-02-20T00:12:12;98400.81;;;5.15;100.00
23616;BME280;11985;49.404;7.734;2023-02-20T00:17:13;98407.84;;;5.04;100.00
23616;BME280;11985;49.404;7.734;2023-02-20T00:22:14;98411.06;;;4.89;100.00
23616;BME280;11985;49.404;7.734;2023-02-20T00:27:18;98398.31;;;4.76;100.00
23616;BME280;11985;49.404;7.734;2023-02-20T00:32:19;98398.88;;;4.60;100.00
23616;BME280;11985;49.404;7.734;2023-02-20T00:37:21;98388.19;;;4.44;100.00
23616;BME280;11985;49.404;7.734;2023-02-20T00:42:24;98402.25;;;4.33;100.00
23616;BME280;11985;49.404;7.734;2023-02-20T00:47:25;98388.50;;;4.21;100.00
23616;BME280;11985;49.404;7.734;2023-02-20T00:52:27;98380.56;;;4.13;100.00
23616;BME280;11985;49.404;7.734;2023-02-20T00:57:30;98381.34;;;4.04;100.00
23616;BME280;11985;49.404;7.734;2023-02-20T01:02:31;98376.81;;;3.87;100.00
23616;BME280;11985;49.404;7.734;2023-02-20T01:07:33;98385.75;;;3.75;100.00
23616;BME280;11985;49.404;7.734;2023-02-20T01:12:36;98396.97;;;3.56;100.00
23616;BME280;11985;49.404;7.734;2023-02-20T01:17:37;98392.78;;;3.43;100.00
23616;BME280;11985;49.404;7.734;2023-02-20T01:22:39;98382.78;;;3.39;100.00
23616;BME280;11985;49.404;7.734;2023-02-20T01:27:42;98375.81;;;3.39;100.00
23616;BME280;11985;49.404;7.734;2023-02-20T01:32:43;98361.97;;;3.49;100.00
23616;BME280;11985;49.404;7.734;2023-02-20T01:37:45;98362.78;;;3.49;100.00
23616;BME280;11985;49.404;7.734;2023-02-20T01:42:48;98359.50;;;3.47;100.00
23616;BME280;11985;49.404;7.734;2023-02-20T01:47:52;98362.41;;;3.63;100.00
23616;BME280;11985;49.404;7.734;2023-02-20T01:52:58;98362.84;;;3.78;100.00
23616;BME280;11985;49.404;7.734;2023-02-20T01:58:05;98356.94;;;3.76;100.00
23616;BME280;11985;49.404;7.734;2023-02-20T02:03:11;98361.72;;;3.71;100.00
23616;BME280;11985;49.404;7.734;2023-02-20T02:08:15;98347.03;;;3.60;100.00
23616;BME280;11985;49.404;7.734;2023-02-20T02:13:21;98344.56;;;3.59;100.00
23616;BME280;11985;49.404;7.734;2023-02-20T02:18:33;98344.88;;;3.56;100.00
23616;BME280;11985;49.404;7.734;2023-02-20T02:29:22;98333.47;;;3.47;100.00
23616;BME280;11985;49.404;7.734;2023-02-20T02:35:00;98340.16;;;3.40;100.00
23616;BME280;11985;49.404;7.734;2023-02-20T02:40:13;98342.22;;;3.46;100.00
23616;BME280;11985;49.404;7.734;2023-02-20T02:45:24;98347.28;;;3.48;100.00
23616;BME280;11985;49.404;7.734;2023-02-20T02:50:32;98339.88;;;3.43;100.00
23616;BME280;11985;49.404;7.734;2023-02-20T02:55:37;98330.28;;;3.43;100.00
23616;BME280;11985;49.404;7.734;2023-02-20T03:00:41;98320.44;;;3.47;100.00
23616;BME280;11985;49.404;7.734;2023-02-20T03:05:44;98311.66;;;3.48;100.00
23616;BME280;11985;49.404;7.734;2023-02-20T03:10:50;98312.38;;;3.50;100.00
23616;BME280;11985;49.404;7.734;2023-02-20T03:15:53;98310.97;;;3.46;100.00
23616;BME280;11985;49.404;7.734;2023-02-20T03:21:00;98305.06;;;3.44;100.00
23616;BME280;11985;49.404;7.734;2023-02-20T03:26:08;98299.56;;;3.37;100.00
23616;BME280;11985;49.404;7.734;2023-02-20T03:31:20;98306.97;;;3.32;100.00
23616;BME280;11985;49.404;7.734;2023-02-20T03:36:29;98313.28;;;3.30;100.00
23616;BME280;11985;49.404;7.734;2023-02-20T03:41:51;98298.19;;;3.24;100.00
23616;BME280;11985;49.404;7.734;2023-02-20T03:47:14;98303.13;;;3.27;100.00
23616;BME280;11985;49.404;7.734;2023-02-20T03:52:19;98310.25;;;3.25;100.00
23616;BME280;11985;49.404;7.734;2023-02-20T03:57:26;98306.16;;;3.22;100.00
23616;BME280;11985;49.404;7.734;2023-02-20T04:02:33;98305.59;;;3.18;100.00
23616;BME280;11985;49.404;7.734;2023-02-20T04:07:40;98306.97;;;3.23;100.00
23616;BME280;11985;49.404;7.734;2023-02-20T04:12:45;98317.63;;;3.20;100.00
23616;BME280;11985;49.404;7.734;2023-02-20T04:17:53;98316.53;;;3.12;100.00
23616;BME280;11985;49.404;7.734;2023-02-20T04:23:06;98313.22;;;3.10;100.00
23616;BME280;11985;49.404;7.734;2023-02-20T04:28:11;98321.31;;;3.07;100.00
23616;BME280;11985;49.404;7.734;2023-02-20T04:33:16;98327.19;;;3.09;100.00
23616;BME280;11985;49.404;7.734;2023-02-20T04:38:18;98325.56;;;3.08;100.00
23616;BME280;11985;49.404;7.734;2023-02-20T04:43:21;98323.91;;;3.07;100.00
23616;BME280;11985;49.404;7.734;2023-02-20T04:48:22;98327.47;;;3.06;100.00
23616;BME280;11985;49.404;7.734;2023-02-20T04:53:24;98312.97;;;3.13;100.00
23616;BME280;11985;49.404;7.734;2023-02-20T04:58:27;98306.69;;;3.26;100.00
23616;BME280;11985;49.404;7.734;2023-02-20T05:03:28;98307.28;;;3.39;100.00
23616;BME280;11985;49.404;7.734;2023-02-20T05:08:30;98303.16;;;3.46;100.00
23616;BME280;11985;49.404;7.734;2023-02-20T05:13:36;98300.41;;;3.48;100.00
23616;BME280;11985;49.404;7.734;2023-02-20T05:18:38;98303.84;;;3.48;100.00
23616;BME280;11985;49.404;7.734;2023-02-20T05:23:39;98299.84;;;3.44;100.00
23616;BME280;11985;49.404;7.734;2023-02-20T05:28:42;98300.69;;;3.35;100.00
23616;BME280;11985;49.404;7.734;2023-02-20T05:33:44;98296.00;;;3.38;100.00
23616;BME280;11985;49.404;7.734;2023-02-20T05:38:46;98301.22;;;3.29;100.00
23616;BME280;11985;49.404;7.734;2023-02-20T05:43:50;98302.88;;;3.30;100.00
23616;BME280;11985;49.404;7.734;2023-02-20T05:48:54;98301.75;;;3.32;100.00
23616;BME280;11985;49.404;7.734;2023-02-20T05:53:56;98298.47;;;3.30;100.00
23616;BME280;11985;49.404;7.734;2023-02-20T05:59:00;98290.53;;;3.32;100.00
23616;BME280;11985;49.404;7.734;2023-02-20T06:04:02;98287.63;;;3.25;100.00
23616;BME280;11985;49.404;7.734;2023-02-20T06:09:05;98293.53;;;3.17;100.00
23616;BME280;11985;49.404;7.734;2023-02-20T06:14:09;98294.31;;;3.08;100.00
23616;BME280;11985;49.404;7.734;2023-02-20T06:19:10;98292.53;;;3.09;100.00
23616;BME280;11985;49.404;7.734;2023-02-20T06:24:12;98297.59;;;3.10;100.00
23616;BME280;11985;49.404;7.734;2023-02-20T06:29:16;98287.22;;;3.20;100.00
23616;BME280;11985;49.404;7.734;2023-02-20T06:34:17;98289.28;;;3.16;100.00
23616;BME280;11985;49.404;7.734;2023-02-20T06:39:19;98291.88;;;3.16;100.00
23616;BME280;11985;49.404;7.734;2023-02-20T06:44:22;98293.78;;;3.14;100.00
23616;BME280;11985;49.404;7.734;2023-02-20T06:49:24;98287.75;;;3.14;100.00
23616;BME280;11985;49.404;7.734;2023-02-20T06:54:26;98285.84;;;3.16;100.00
23616;BME280;11985;49.404;7.734;2023-02-20T06:59:29;98290.75;;;3.09;100.00
23616;BME280;11985;49.404;7.734;2023-02-20T07:04:30;98287.47;;;3.07;100.00
23616;BME280;11985;49.404;7.734;2023-02-20T07:09:32;98295.97;;;3.09;100.00
23616;BME280;11985;49.404;7.734;2023-02-20T07:14:35;98294.50;;;3.16;100.00
23616;BME280;11985;49.404;7.734;2023-02-20T07:19:36;98291.59;;;3.20;100.00
23616;BME280;11985;49.404;7.734;2023-02-20T07:24:38;98301.47;;;3.26;100.00
23616;BME280;11985;49.404;7.734;2023-02-20T07:29:43;98310.00;;;3.28;100.00
23616;BME280;11985;49.404;7.734;2023-02-20T07:34:47;98306.16;;;3.32;100.00
23616;BME280;11985;49.404;7.734;2023-02-20T07:39:48;98302.06;;;3.39;100.00
23616;BME280;11985;49.404;7.734;2023-02-20T07:44:51;98313.28;;;3.49;100.00
23616;BME280;11985;49.404;7.734;2023-02-20T07:49:53;98313.88;;;3.62;100.00
23616;BME280;11985;49.404;7.734;2023-02-20T07:54:54;98315.66;;;3.81;100.00
23616;BME280;11985;49.404;7.734;2023-02-20T07:59:57;98312.25;;;4.00;100.00
23616;BME280;11985;49.404;7.734;2023-02-20T08:04:59;98303.00;;;4.15;100.00
23616;BME280;11985;49.404;7.734;2023-02-20T08:10:00;98303.00;;;4.25;100.00
23616;BME280;11985;49.404;7.734;2023-02-20T08:15:04;98290.34;;;4.40;100.00
23616;BME280;11985;49.404;7.734;2023-02-20T08:20:07;98292.88;;;4.59;100.00
23616;BME280;11985;49.404;7.734;2023-02-20T08:25:09;98287.88;;;4.75;100.00
23616;BME280;11985;49.404;7.734;2023-02-20T08:30:15;98290.41;;;4.95;100.00
23616;BME280;11985;49.404;7.734;2023-02-20T08:35:17;98291.56;;;5.10;100.00
23616;BME280;11985;49.404;7.734;2023-02-20T08:40:18;98290.97;;;5.16;100.00
23616;BME280;11985;49.404;7.734;2023-02-20T08:45:21;98293.97;;;5.21;100.00
23616;BME280;11985;49.404;7.734;2023-02-20T08:50:23;98298.03;;;5.34;100.00
23616;BME280;11985;49.404;7.734;2023-02-20T08:55:25;98284.44;;;5.48;100.00
23616;BME280;11985;49.404;7.734;2023-02-20T09:00:28;98284.59;;;5.64;100.00
23616;BME280;11985;49.404;7.734;2023-02-20T09:05:29;98265.47;;;5.81;100.00
23616;BME280;11985;49.404;7.734;2023-02-20T09:10:31;98265.13;;;5.94;100.00
23616;BME280;11985;49.404;7.734;2023-02-20T09:15:34;98261.75;;;6.02;100.00
23616;BME280;11985;49.404;7.734;2023-02-20T09:20:39;98270.34;;;6.12;100.00
23616;BME280;11985;49.404;7.734;2023-02-20T09:25:41;98279.19;;;6.19;100.00
23616;BME280;11985;49.404;7.734;2023-02-20T09:30:44;98258.03;;;6.30;100.00
23616;BME280;11985;49.404;7.734;2023-02-20T09:35:46;98256.84;;;6.25;100.00
23616;BME280;11985;49.404;7.734;2023-02-20T09:40:49;98266.47;;;6.24;100.00
23616;BME280;11985;49.404;7.734;2023-02-20T09:46:00;98268.75;;;6.45;100.00
23616;BME280;11985;49.404;7.734;2023-02-20T09:51:10;98254.16;;;6.43;100.00
23616;BME280;11985;49.404;7.734;2023-02-20T09:56:16;98260.56;;;6.48;100.00
23616;BME280;11985;49.404;7.734;2023-02-20T10:01:21;98261.81;;;6.70;100.00
23616;BME280;11985;49.404;7.734;2023-02-20T10:06:26;98247.47;;;6.74;100.00
23616;BME280;11985;49.404;7.734;2023-02-20T10:11:40;98235.13;;;7.01;100.00
23616;BME280;11985;49.404;7.734;2023-02-20T10:16:53;98237.78;;;7.17;100.00
23616;BME280;11985;49.404;7.734;2023-02-20T10:22:00;98235.53;;;7.38;100.00
23616;BME280;11985;49.404;7.734;2023-02-20T10:27:16;98237.00;;;7.65;100.00
23616;BME280;11985;49.404;7.734;2023-02-20T10:32:25;98241.94;;;7.77;100.00
23616;BME280;11985;49.404;7.734;2023-02-20T10:37:34;98246.03;;;7.96;100.00
23616;BME280;11985;49.404;7.734;2023-02-20T10:42:41;98253.41;;;8.08;100.00
23616;BME280;11985;49.404;7.734;2023-02-20T10:47:49;98250.94;;;8.23;100.00
23616;BME280;11985;49.404;7.734;2023-02-20T10:52:56;98249.63;;;8.19;100.00
23616;BME280;11985;49.404;7.734;2023-02-20T10:58:03;98246.03;;;8.12;100.00
23616;BME280;11985;49.404;7.734;2023-02-20T11:03:11;98227.66;;;8.12;100.00
23616;BME280;11985;49.404;7.734;2023-02-20T11:08:15;98242.41;;;8.13;100.00
23616;BME280;11985;49.404;7.734;2023-02-20T11:13:23;98219.75;;;8.36;100.00
23616;BME280;11985;49.404;7.734;2023-02-20T11:18:31;98228.16;;;8.79;100.00
23616;BME280;11985;49.404;7.734;2023-02-20T11:23:38;98232.56;;;8.87;100.00
23616;BME280;11985;49.404;7.734;2023-02-20T11:28:40;98228.72;;;8.97;100.00
23616;BME280;11985;49.404;7.734;2023-02-20T11:33:45;98218.59;;;8.94;99.48
23616;BME280;11985;49.404;7.734;2023-02-20T11:38:56;98214.56;;;9.07;98.70
23616;BME280;11985;49.404;7.734;2023-02-20T11:44:17;98194.44;;;9.22;97.64
23616;BME280;11985;49.404;7.734;2023-02-20T11:49:25;98203.97;;;9.23;97.53
23616;BME280;11985;49.404;7.734;2023-02-20T11:54:27;98197.66;;;9.55;96.84
23616;BME280;11985;49.404;7.734;2023-02-20T11:59:33;98181.00;;;9.63;95.26
23616;BME280;11985;49.404;7.734;2023-02-20T12:04:36;98178.28;;;9.71;94.71
23616;BME280;11985;49.404;7.734;2023-02-20T12:09:37;98172.91;;;9.64;93.27
23616;BME280;11985;49.404;7.734;2023-02-20T12:14:41;98160.44;;;9.81;94.07
23616;BME280;11985;49.404;7.734;2023-02-20T12:19:52;98146.84;;;9.92;92.63
23616;BME280;11985;49.404;7.734;2023-02-20T12:25:11;98147.41;;;10.17;93.37
23616;BME280;11985;49.404;7.734;2023-02-20T12:30:26;98135.50;;;10.21;91.27
23616;BME280;11985;49.404;7.734;2023-02-20T12:35:33;98123.13;;;10.30;91.54
23616;BME280;11985;49.404;7.734;2023-02-20T12:40:43;98114.63;;;10.20;89.37
23616;BME280;11985;49.404;7.734;2023-02-20T12:45:57;98115.94;;;10.24;89.54
23616;BME280;11985;49.404;7.734;2023-02-20T12:51:09;98102.13;;;10.51;90.09
23616;BME280;11985;49.404;7.734;2023-02-20T12:56:21;98100.16;;;10.75;88.59
23616;BME280;11985;49.404;7.734;2023-02-20T13:01:24;98083.59;;;10.81;87.15
23616;BME280;11985;49.404;7.734;2023-02-20T13:06:31;98078.97;;;10.83;85.80
23616;BME280;11985;49.404;7.734;2023-02-20T13:11:38;98068.66;;;10.88;85.61
23616;BME280;11985;49.404;7.734;2023-02-20T13:16:43;98067.47;;;11.12;85.67
23616;BME280;11985;49.404;7.734;2023-02-20T13:21:49;98056.63;;;11.22;83.37
23616;BME280;11985;49.404;7.734;2023-02-20T13:26:51;98054.97;;;11.21;82.80
23616;BME280;11985;49.404;7.734;2023-02-20T13:31:54;98045.03;;;11.44;82.56
23616;BME280;11985;49.404;7.734;2023-02-20T13:36:58;98031.72;;;11.59;79.25
23616;BME280;11985;49.404;7.734;2023-02-20T13:42:01;98031.59;;;11.74;78.96
23616;BME280;11985;49.404;7.734;2023-02-20T13:47:26;98011.50;;;11.73;77.83
23616;BME280;11985;49.404;7.734;2023-02-20T13:52:36;98013.44;;;11.57;77.22
23616;BME280;11985;49.404;7.734;2023-02-20T13:57:43;97993.19;;;11.64;76.64
23616;BME280;11985;49.404;7.734;2023-02-20T14:02:46;98003.88;;;11.84;76.25
23616;BME280;11985;49.404;7.734;2023-02-20T14:07:49;98002.97;;;12.05;75.13
23616;BME280;11985;49.404;7.734;2023-02-20T14:13:00;97998.75;;;12.18;74.33
23616;BME280;11985;49.404;7.734;2023-02-20T14:18:02;97988.19;;;12.18;72.70
23616;BME280;11985;49.404;7.734;2023-02-20T14:23:08;97975.94;;;12.03;69.45
23616;BME280;11985;49.404;7.734;2023-02-20T14:28:12;97969.50;;;12.19;68.23
23616;BME280;11985;49.404;7.734;2023-02-20T14:33:30;97972.56;;;12.23;66.03
23616;BME280;11985;49.404;7.734;2023-02-20T14:38:47;97959.75;;;12.20;64.89
23616;BME280;11985;49.404;7.734;2023-02-20T14:43:56;97957.31;;;12.18;64.86
23616;BME280;11985;49.404;7.734;2023-02-20T14:49:06;97939.63;;;12.19;64.77
23616;BME280;11985;49.404;7.734;2023-02-20T14:54:21;97934.34;;;12.19;64.73
23616;BME280;11985;49.404;7.734;2023-02-20T14:59:28;97933.31;;;12.13;64.07
23616;BME280;11985;49.404;7.734;2023-02-20T15:04:30;97923.53;;;12.00;64.00
23616;BME280;11985;49.404;7.734;2023-02-20T15:09:37;97923.34;;;12.08;64.28
23616;BME280;11985;49.404;7.734;2023-02-20T15:14:41;97914.25;;;12.18;64.78
23616;BME280;11985;49.404;7.734;2023-02-20T15:19:44;97914.69;;;12.28;65.69
23616;BME280;11985;49.404;7.734;2023-02-20T15:24:47;97909.41;;;12.54;66.88
23616;BME280;11985;49.404;7.734;2023-02-20T15:30:07;97907.41;;;12.50;67.20
23616;BME280;11985;49.404;7.734;2023-02-20T15:35:13;97912.69;;;12.56;67.98
23616;BME280;11985;49.404;7.734;2023-02-20T15:40:21;97898.88;;;12.61;67.83
23616;BME280;11985;49.404;7.734;2023-02-20T15:45:23;97888.47;;;12.39;68.37
23616;BME280;11985;49.404;7.734;2023-02-20T15:50:25;97879.75;;;12.39;68.48
23616;BME280;11985;49.404;7.734;2023-02-20T15:55:31;97882.34;;;12.19;68.95
23616;BME280;11985;49.404;7.734;2023-02-20T16:00:33;97870.75;;;12.13;69.33
23616;BME280;11985;49.404;7.734;2023-02-20T16:05:35;97864.66;;;12.06;69.38
23616;BME280;11985;49.404;7.734;2023-02-20T16:10:38;97871.41;;;12.29;69.14
23616;BME280;11985;49.404;7.734;2023-02-20T16:15:39;97864.72;;;12.73;68.25
23616;BME280;11985;49.404;7.734;2023-02-20T16:20:41;97862.28;;;11.70;69.58
23616;BME280;11985;49.404;7.734;2023-02-20T16:25:44;97859.91;;;11.27;71.75
23616;BME280;11985;49.404;7.734;2023-02-20T16:30:46;97853.09;;;11.05;73.17
23616;BME280;11985;49.404;7.734;2023-02-20T16:35:48;97844.09;;;10.65;74.91
23616;BME280;11985;49.404;7.734;2023-02-20T16:40:51;97849.78;;;10.40;77.10
23616;BME280;11985;49.404;7.734;2023-02-20T16:45:54;97834.59;;;10.21;78.65
23616;BME280;11985;49.404;7.734;2023-02-20T16:50:55;97833.47;;;10.09;79.82
23616;BME280;11985;49.404;7.734;2023-02-20T16:55:58;97840.59;;;9.93;81.02
23616;BME280;11985;49.404;7.734;2023-02-20T17:01:00;97842.09;;;9.81;82.12
23616;BME280;11985;49.404;7.734;2023-02-20T17:06:01;97847.50;;;9.73;82.85
23616;BME280;11985;49.404;7.734;2023-02-20T17:11:04;97854.59;;;9.58;83.65
23616;BME280;11985;49.404;7.734;2023-02-20T17:16:06;97854.25;;;9.46;84.84
23616;BME280;11985;49.404;7.734;2023-02-20T17:21:08;97866.13;;;9.27;85.64
23616;BME280;11985;49.404;7.734;2023-02-20T17:26:11;97866.53;;;9.24;86.22
23616;BME280;11985;49.404;7.734;2023-02-20T17:31:13;97860.88;;;9.27;86.34
23616;BME280;11985;49.404;7.734;2023-02-20T17:36:15;97874.41;;;9.24;86.65
23616;BME280;11985;49.404;7.734;2023-02-20T17:41:18;97875.59;;;9.07;86.99
23616;BME280;11985;49.404;7.734;2023-02-20T17:46:19;97877.75;;;8.88;87.55
23616;BME280;11985;49.404;7.734;2023-02-20T17:51:21;97881.16;;;8.74;88.24
23616;BME280;11985;49.404;7.734;2023-02-20T17:56:24;97887.28;;;8.52;89.67
23616;BME280;11985;49.404;7.734;2023-02-20T18:01:25;97881.56;;;8.25;91.49
23616;BME280;11985;49.404;7.734;2023-02-20T18:06:27;97880.84;;;8.08;92.42
23616;BME280;11985;49.404;7.734;2023-02-20T18:11:30;97897.16;;;7.96;94.32
23616;BME280;11985;49.404;7.734;2023-02-20T18:16:35;97891.03;;;7.80;95.37
23616;BME280;11985;49.404;7.734;2023-02-20T18:21:39;97895.75;;;7.85;95.96
23616;BME280;11985;49.404;7.734;2023-02-20T18:26:43;97889.41;;;8.02;96.10
23616;BME280;11985;49.404;7.734;2023-02-20T18:31:45;97885.88;;;8.18;94.96
23616;BME280;11985;49.404;7.734;2023-02-20T18:36:47;97885.81;;;8.26;94.54
23616;BME280;11985;49.404;7.734;2023-02-20T18:41:51;97891.41;;;8.23;94.23
23616;BME280;11985;49.404;7.734;2023-02-20T18:46:53;97881.31;;;8.12;94.48
23616;BME280;11985;49.404;7.734;2023-02-20T18:51:56;97878.59;;;8.05;94.87
23616;BME280;11985;49.404;7.734;2023-02-20T18:57:00;97877.00;;;7.96;95.15
23616;BME280;11985;49.404;7.734;2023-02-20T19:02:03;97882.47;;;7.86;95.59
23616;BME280;11985;49.404;7.734;2023-02-20T19:07:05;97886.28;;;7.76;96.53
23616;BME280;11985;49.404;7.734;2023-02-20T19:12:08;97878.94;;;7.71;97.09
23616;BME280;11985;49.404;7.734;2023-02-20T19:17:11;97874.50;;;7.72;97.68
23616;BME280;11985;49.404;7.734;2023-02-20T19:22:12;97874.25;;;7.66;97.76
23616;BME280;11985;49.404;7.734;2023-02-20T19:27:15;97871.75;;;7.65;97.95
23616;BME280;11985;49.404;7.734;2023-02-20T19:32:17;97867.31;;;7.74;97.88
23616;BME280;11985;49.404;7.734;2023-02-20T19:37:20;97875.59;;;7.85;97.07
23616;BME280;11985;49.404;7.734;2023-02-20T19:42:28;97868.66;;;7.92;96.33
23616;BME280;11985;49.404;7.734;2023-02-20T19:47:30;97876.28;;;7.79;95.85
23616;BME280;11985;49.404;7.734;2023-02-20T19:52:32;97862.69;;;7.76;95.92
23616;BME280;11985;49.404;7.734;2023-02-20T19:57:35;97859.25;;;7.75;95.60
23616;BME280;11985;49.404;7.734;2023-02-20T20:02:36;97860.97;;;7.60;95.89
23616;BME280;11985;49.404;7.734;2023-02-20T20:07:38;97856.94;;;7.49;96.75
23616;BME280;11985;49.404;7.734;2023-02-20T20:12:41;97863.84;;;7.50;96.26
23616;BME280;11985;49.404;7.734;2023-02-20T20:17:52;97857.94;;;7.48;96.45
23616;BME280;11985;49.404;7.734;2023-02-20T20:22:54;97866.66;;;7.40;96.57
23616;BME280;11985;49.404;7.734;2023-02-20T20:27:58;97877.47;;;7.37;96.69
23616;BME280;11985;49.404;7.734;2023-02-20T20:33:01;97876.16;;;7.41;96.67
23616;BME280;11985;49.404;7.734;2023-02-20T20:38:03;97892.69;;;7.42;96.56
23616;BME280;11985;49.404;7.734;2023-02-20T20:43:06;97896.75;;;7.53;96.24
23616;BME280;11985;49.404;7.734;2023-02-20T20:48:09;97903.00;;;7.44;96.28
23616;BME280;11985;49.404;7.734;2023-02-20T20:53:11;97892.88;;;7.40;96.47
23616;BME280;11985;49.404;7.734;2023-02-20T20:58:14;97889.44;;;7.32;96.84
23616;BME280;11985;49.404;7.734;2023-02-20T21:03:16;97896.69;;;7.22;97.19
23616;BME280;11985;49.404;7.734;2023-02-20T21:08:18;97893.28;;;7.05;98.24
23616;BME280;11985;49.404;7.734;2023-02-20T21:13:21;97893.00;;;6.92;98.92
23616;BME280;11985;49.404;7.734;2023-02-20T21:18:23;97890.72;;;6.80;100.00
23616;BME280;11985;49.404;7.734;2023-02-20T21:23:24;97894.84;;;6.67;100.00
23616;BME280;11985;49.404;7.734;2023-02-20T21:28:27;97892.41;;;6.57;100.00
23616;BME280;11985;49.404;7.734;2023-02-20T21:33:29;97890.44;;;6.43;100.00
23616;BME280;11985;49.404;7.734;2023-02-20T21:38:30;97884.25;;;6.27;100.00
23616;BME280;11985;49.404;7.734;2023-02-20T21:43:35;97884.38;;;6.09;100.00
23616;BME280;11985;49.404;7.734;2023-02-20T21:48:54;97889.09;;;5.98;100.00
23616;BME280;11985;49.404;7.734;2023-02-20T21:53:56;97877.47;;;5.84;100.00
23616;BME280;11985;49.404;7.734;2023-02-20T21:58:58;97862.25;;;5.88;100.00
23616;BME280;11985;49.404;7.734;2023-02-20T22:04:03;97856.56;;;5.92;100.00
23616;BME280;11985;49.404;7.734;2023-02-20T22:09:03;97859.00;;;5.86;100.00
23616;BME280;11985;49.404;7.734;2023-02-20T22:14:25;97857.97;;;5.62;100.00
23616;BME280;11985;49.404;7.734;2023-02-20T22:19:44;97858.69;;;5.30;100.00
23616;BME280;11985;49.404;7.734;2023-02-20T22:25:04;97853.50;;;5.04;100.00
23616;BME280;11985;49.404;7.734;2023-02-20T22:30:25;97848.53;;;4.85;100.00
23616;BME280;11985;49.404;7.734;2023-02-20T22:35:44;97838.66;;;4.70;100.00
23616;BME280;11985;49.404;7.734;2023-02-20T22:41:04;97847.63;;;4.68;100.00
23616;BME280;11985;49.404;7.734;2023-02-20T22:46:24;97837.00;;;4.61;100.00
23616;BME280;11985;49.404;7.734;2023-02-20T22:51:46;97845.56;;;4.54;100.00
23616;BME280;11985;49.404;7.734;2023-02-20T22:57:05;97843.66;;;4.38;100.00
23616;BME280;11985;49.404;7.734;2023-02-20T23:02:26;97841.91;;;4.20;100.00
23616;BME280;11985;49.404;7.734;2023-02-20T23:07:45;97842.13;;;4.09;100.00
23616;BME280;11985;49.404;7.734;2023-02-20T23:13:04;97838.66;;;4.01;100.00
23616;BME280;11985;49.404;7.734;2023-02-20T23:18:25;97834.63;;;3.88;100.00
23616;BME280;11985;49.404;7.734;2023-02-20T23:23:46;97829.56;;;3.87;100.00
23616;BME280;11985;49.404;7.734;2023-02-20T23:29:05;97826.75;;;3.80;100.00
23616;BME280;11985;49.404;7.734;2023-02-20T23:34:27;97819.38;;;3.76;100.00
23616;BME280;11985;49.404;7.734;2023-02-20T23:39:47;97817.50;;;3.86;100.00
23616;BME280;11985;49.404;7.734;2023-02-20T23:45:07;97809.47;;;3.97;100.00
23616;BME280;11985;49.404;7.734;2023-02-20T23:50:28;97810.50;;;4.04;100.00
23616;BME280;11985;49.404;7.734;2023-02-20T23:55:47;97796.56;;;4.13;100.00
